createdAt,value
2023-02-06T00:01:51.561Z,4.45
2023-02-06T00:04:19.258Z,5.40
2023-02-06T00:06:46.982Z,4.90
2023-02-06T00:09:14.697Z,5.32
2023-02-06T00:11:43.707Z,5.07
2023-02-06T00:14:11.395Z,5.57
2023-02-06T00:16:39.066Z,5.53
2023-02-06T00:19:06.749Z,5.70
2023-02-06T00:21:34.436Z,6.28
2023-02-06T00:24:02.381Z,6.72
2023-02-06T00:26:31.187Z,6.70
2023-02-06T00:29:00.188Z,7.72
2023-02-06T00:31:27.929Z,7.50
2023-02-06T00:33:55.633Z,8.05
2023-02-06T00:36:23.352Z,8.27
2023-02-06T00:38:52.415Z,8.48
2023-02-06T00:41:20.776Z,8.10
2023-02-06T00:43:48.470Z,9.27
2023-02-06T00:46:17.490Z,9.50
2023-02-06T00:48:45.208Z,10.25
2023-02-06T00:51:12.877Z,10.90
2023-02-06T00:53:40.546Z,10.57
2023-02-06T00:56:08.223Z,12.05
2023-02-06T00:58:35.926Z,11.75
2023-02-06T01:01:04.056Z,11.98
2023-02-06T01:03:33.103Z,12.07
2023-02-06T01:06:00.783Z,12.90
2023-02-06T01:08:28.491Z,13.07
2023-02-06T01:10:56.180Z,13.73
2023-02-06T01:13:23.854Z,13.73
2023-02-06T01:15:51.607Z,15.55
2023-02-06T01:18:19.347Z,14.98
2023-02-06T01:20:48.356Z,14.65
2023-02-06T01:23:16.069Z,15.35
2023-02-06T01:25:45.119Z,17.02
2023-02-06T01:28:12.847Z,17.42
2023-02-06T01:30:40.667Z,18.60
2023-02-06T01:33:08.397Z,18.77
2023-02-06T01:35:37.982Z,18.77
2023-02-06T01:38:06.989Z,20.48
2023-02-06T01:40:34.661Z,20.13
2023-02-06T01:43:02.955Z,20.98
2023-02-06T01:45:44.118Z,20.27
2023-02-06T01:48:14.807Z,22.45
2023-02-06T01:50:44.100Z,22.80
2023-02-06T01:53:13.124Z,22.85
2023-02-06T01:55:40.873Z,23.40
2023-02-06T01:58:09.032Z,25.75
2023-02-06T02:00:36.841Z,25.95
2023-02-06T02:03:04.699Z,26.48
2023-02-06T02:05:33.260Z,26.90
2023-02-06T02:08:04.420Z,27.75
2023-02-06T02:10:33.425Z,27.42
2023-02-06T02:13:01.174Z,29.67
2023-02-06T02:15:35.732Z,29.58
2023-02-06T02:18:04.853Z,31.00
2023-02-06T02:20:49.640Z,31.85
2023-02-06T02:23:36.043Z,32.55
2023-02-06T02:26:28.718Z,34.13
2023-02-06T02:29:10.012Z,35.80
2023-02-06T02:32:01.357Z,36.10
2023-02-06T02:35:01.651Z,37.65
2023-02-06T02:37:32.481Z,38.22
2023-02-06T02:40:01.548Z,41.42
2023-02-06T02:42:34.746Z,42.83
2023-02-06T02:45:05.309Z,46.67
2023-02-06T02:47:35.006Z,43.67
2023-02-06T02:50:04.072Z,48.45
2023-02-06T02:52:31.745Z,47.95
2023-02-06T02:55:00.375Z,49.42
2023-02-06T02:57:29.360Z,49.75
2023-02-06T02:59:58.025Z,51.05
2023-02-06T03:02:26.801Z,50.92
2023-02-06T03:04:56.213Z,53.50
2023-02-06T03:07:31.518Z,55.72
2023-02-06T03:10:03.615Z,53.90
2023-02-06T03:12:36.073Z,55.88
2023-02-06T03:15:05.213Z,56.20
2023-02-06T03:17:35.917Z,58.55
2023-02-06T03:20:04.983Z,57.70
2023-02-06T03:22:34.063Z,58.63
2023-02-06T03:25:01.802Z,60.65
2023-02-06T03:27:29.482Z,62.88
2023-02-06T03:29:57.144Z,61.30
2023-02-06T03:32:27.570Z,63.55
2023-02-06T03:34:58.624Z,62.63
2023-02-06T03:37:26.442Z,63.35
2023-02-06T03:39:55.545Z,65.00
2023-02-06T03:42:23.270Z,66.35
2023-02-06T03:44:52.266Z,64.22
2023-02-06T03:47:19.973Z,64.80
2023-02-06T03:49:47.650Z,66.95
2023-02-06T03:52:16.835Z,66.57
2023-02-06T03:54:46.650Z,71.55
2023-02-06T03:57:19.169Z,68.53
2023-02-06T03:59:46.924Z,68.43
2023-02-06T04:02:14.682Z,70.78
2023-02-06T04:04:43.003Z,71.35
2023-02-06T04:07:14.479Z,72.03
2023-02-06T04:09:42.259Z,70.80
2023-02-06T04:12:10.141Z,71.38
2023-02-06T04:14:39.425Z,71.93
2023-02-06T04:17:07.201Z,72.40
2023-02-06T04:19:35.028Z,75.25
2023-02-06T04:22:02.844Z,74.22
2023-02-06T04:24:31.079Z,72.10
2023-02-06T04:26:58.964Z,75.63
2023-02-06T04:29:26.672Z,74.15
2023-02-06T04:32:01.884Z,73.03
2023-02-06T04:34:29.645Z,74.03
2023-02-06T04:36:57.471Z,71.28
2023-02-06T04:39:25.267Z,73.25
2023-02-06T04:41:52.956Z,73.50
2023-02-06T04:44:20.626Z,74.03
2023-02-06T04:46:48.389Z,74.60
2023-02-06T04:49:17.431Z,72.68
2023-02-06T04:51:45.105Z,73.65
2023-02-06T04:54:12.918Z,71.57
2023-02-06T04:56:40.645Z,71.13
2023-02-06T04:59:08.305Z,70.65
2023-02-06T05:01:36.009Z,73.35
2023-02-06T05:04:03.733Z,73.40
2023-02-06T05:06:32.777Z,72.13
2023-02-06T05:09:00.548Z,70.70
2023-02-06T05:11:28.242Z,70.25
2023-02-06T05:13:55.965Z,69.10
2023-02-06T05:16:23.733Z,69.63
2023-02-06T05:18:53.825Z,69.13
2023-02-06T05:21:22.226Z,69.30
2023-02-06T05:23:51.250Z,68.88
2023-02-06T05:26:18.921Z,66.30
2023-02-06T05:28:46.583Z,66.25
2023-02-06T05:31:18.262Z,67.15
2023-02-06T05:33:46.578Z,69.47
2023-02-06T05:36:14.264Z,68.97
2023-02-06T05:38:42.065Z,67.63
2023-02-06T05:41:11.169Z,65.85
2023-02-06T05:43:39.025Z,65.95
2023-02-06T05:46:06.789Z,67.63
2023-02-06T05:48:35.148Z,65.05
2023-02-06T05:51:02.995Z,66.57
2023-02-06T05:53:30.742Z,62.53
2023-02-06T05:55:58.434Z,64.57
2023-02-06T05:58:27.526Z,63.25
2023-02-06T06:00:55.241Z,60.88
2023-02-06T06:03:22.943Z,62.65
2023-02-06T06:05:50.734Z,61.70
2023-02-06T06:08:18.694Z,62.83
2023-02-06T06:10:46.425Z,60.75
2023-02-06T06:13:14.117Z,59.88
2023-02-06T06:15:43.227Z,58.55
2023-02-06T06:18:11.073Z,59.10
2023-02-06T06:20:38.802Z,60.17
2023-02-06T06:23:06.511Z,57.75
2023-02-06T06:25:34.907Z,57.13
2023-02-06T06:28:02.950Z,57.33
2023-02-06T06:30:30.747Z,56.03
2023-02-06T06:32:59.872Z,56.88
2023-02-06T06:35:27.574Z,57.30
2023-02-06T06:37:55.469Z,57.45
2023-02-06T06:40:23.293Z,54.55
2023-02-06T06:42:50.958Z,54.05
2023-02-06T06:45:18.878Z,54.00
2023-02-06T06:47:46.533Z,54.08
2023-02-06T06:50:15.781Z,51.20
2023-02-06T06:52:43.520Z,52.13
2023-02-06T06:55:11.281Z,50.65
2023-02-06T06:57:38.995Z,49.53
2023-02-06T07:00:07.533Z,49.17
2023-02-06T07:02:35.216Z,50.17
2023-02-06T07:05:02.913Z,49.80
2023-02-06T07:07:31.952Z,48.63
2023-02-06T07:10:00.067Z,47.67
2023-02-06T07:12:28.044Z,46.88
2023-02-06T07:14:55.828Z,47.15
2023-02-06T07:17:23.575Z,48.58
2023-02-06T07:19:52.435Z,46.83
2023-02-06T07:22:20.472Z,45.10
2023-02-06T07:24:49.509Z,44.15
2023-02-06T07:27:17.167Z,43.80
2023-02-06T07:29:44.839Z,43.53
2023-02-06T07:32:12.694Z,43.72
2023-02-06T07:34:40.588Z,43.60
2023-02-06T07:37:08.372Z,42.72
2023-02-06T07:39:36.118Z,42.40
2023-02-06T07:42:05.687Z,40.63
2023-02-06T07:44:49.419Z,40.28
2023-02-06T07:47:17.123Z,41.22
2023-02-06T07:49:44.855Z,39.65
2023-02-06T07:52:12.530Z,38.90
2023-02-06T07:54:40.206Z,40.05
2023-02-06T07:57:09.181Z,39.20
2023-02-06T07:59:36.923Z,37.72
2023-02-06T08:02:04.645Z,38.58
2023-02-06T08:04:35.261Z,36.08
2023-02-06T08:07:03.086Z,36.45
2023-02-06T08:09:30.819Z,35.97
2023-02-06T08:11:58.505Z,35.28
2023-02-06T08:14:28.414Z,34.55
2023-02-06T08:16:56.210Z,34.58
2023-02-06T08:19:24.051Z,34.00
2023-02-06T08:21:51.758Z,33.75
2023-02-06T08:24:19.497Z,33.83
2023-02-06T08:26:47.184Z,33.28
2023-02-06T08:29:15.256Z,33.10
2023-02-06T08:31:44.451Z,33.28
2023-02-06T08:34:14.242Z,31.38
2023-02-06T08:36:43.469Z,31.15
2023-02-06T08:39:11.950Z,30.45
2023-02-06T08:41:41.785Z,29.98
2023-02-06T08:44:11.736Z,30.13
2023-02-06T08:46:39.756Z,28.48
2023-02-06T08:49:11.887Z,28.23
2023-02-06T08:51:39.578Z,27.58
2023-02-06T08:54:08.324Z,27.67
2023-02-06T08:56:36.723Z,27.00
2023-02-06T08:59:04.788Z,26.35
2023-02-06T09:01:33.654Z,26.42
2023-02-06T09:04:02.781Z,26.88
2023-02-06T09:06:31.784Z,25.85
2023-02-06T09:08:59.583Z,25.77
2023-02-06T09:11:27.532Z,24.73
2023-02-06T09:13:55.924Z,24.02
2023-02-06T09:16:23.794Z,24.60
2023-02-06T09:18:54.219Z,23.58
2023-02-06T09:21:23.003Z,22.50
2023-02-06T09:23:53.470Z,22.42
2023-02-06T09:26:21.871Z,21.13
2023-02-06T09:28:52.284Z,21.33
2023-02-06T09:31:19.946Z,21.67
2023-02-06T09:33:47.671Z,21.90
2023-02-06T09:36:16.260Z,20.95
2023-02-06T09:38:44.762Z,19.75
2023-02-06T09:41:15.607Z,19.48
2023-02-06T09:43:43.979Z,20.10
2023-02-06T09:46:11.704Z,19.55
2023-02-06T09:48:39.439Z,19.60
2023-02-06T09:51:12.058Z,19.35
2023-02-06T09:53:44.090Z,19.02
2023-02-06T09:56:18.632Z,18.65
2023-02-06T09:58:49.719Z,16.70
2023-02-06T10:01:19.667Z,16.92
2023-02-06T10:03:54.303Z,17.25
2023-02-06T10:06:24.164Z,16.90
2023-02-06T10:08:57.732Z,16.83
2023-02-06T10:11:33.758Z,15.88
2023-02-06T10:14:02.839Z,15.30
2023-02-06T10:16:35.978Z,15.40
2023-02-06T10:19:05.389Z,15.35
2023-02-06T10:21:34.864Z,15.25
2023-02-06T10:24:05.660Z,15.32
2023-02-06T10:26:34.888Z,15.18
2023-02-06T10:29:02.554Z,13.80
2023-02-06T10:31:44.795Z,14.48
2023-02-06T10:34:22.385Z,13.85
2023-02-06T10:36:57.305Z,13.73
2023-02-06T10:39:52.385Z,12.90
2023-02-06T10:42:24.675Z,13.30
2023-02-06T10:44:59.566Z,12.75
2023-02-06T10:47:36.847Z,12.80
2023-02-06T10:50:17.647Z,12.05
2023-02-06T10:52:45.476Z,12.52
2023-02-06T10:55:17.467Z,11.73
2023-02-06T10:57:46.898Z,11.68
2023-02-06T11:00:26.679Z,11.25
2023-02-06T11:03:06.617Z,11.35
2023-02-06T11:05:35.831Z,10.88
2023-02-06T11:08:08.705Z,10.93
2023-02-06T11:10:36.624Z,10.73
2023-02-06T11:13:07.120Z,9.75
2023-02-06T11:15:37.426Z,10.23
2023-02-06T11:18:07.001Z,9.98
2023-02-06T11:20:36.579Z,9.80
2023-02-06T11:23:16.763Z,9.40
2023-02-06T11:25:44.555Z,8.32
2023-02-06T11:28:16.524Z,8.88
2023-02-06T11:30:54.258Z,9.18
2023-02-06T11:33:23.244Z,8.32
2023-02-06T11:35:53.199Z,8.25
2023-02-06T11:38:22.173Z,8.18
2023-02-06T11:40:57.698Z,8.00
2023-02-06T11:43:27.398Z,7.53
2023-02-06T11:46:13.615Z,7.30
2023-02-06T11:48:42.019Z,7.40
2023-02-06T11:51:10.072Z,7.10
2023-02-06T11:53:38.178Z,7.10
2023-02-06T11:56:17.021Z,6.75
2023-02-06T11:58:46.394Z,6.75
2023-02-06T12:01:20.927Z,6.45
2023-02-06T12:03:55.945Z,6.50
2023-02-06T12:06:28.973Z,6.50
2023-02-06T12:08:58.188Z,5.90
2023-02-06T12:11:26.871Z,6.13
2023-02-06T12:13:58.079Z,6.00
2023-02-06T12:16:25.762Z,5.53
2023-02-06T12:18:54.992Z,5.80
2023-02-06T12:21:26.892Z,5.68
2023-02-06T12:23:56.493Z,5.50
2023-02-06T12:26:25.467Z,5.22
2023-02-06T12:28:57.565Z,4.88
2023-02-06T12:31:29.065Z,5.07
2023-02-06T12:34:01.210Z,4.65
2023-02-06T12:36:31.997Z,4.70
2023-02-06T12:39:01.927Z,4.70
2023-02-06T12:41:50.894Z,4.38
2023-02-06T12:44:23.868Z,4.82
2023-02-06T12:46:54.557Z,4.30
2023-02-06T12:49:24.584Z,4.57
2023-02-06T12:51:54.729Z,3.67
2023-02-06T12:54:24.103Z,4.32
2023-02-06T12:56:53.297Z,4.30
2023-02-06T13:00:00.333Z,3.83
2023-02-06T13:02:42.773Z,3.80
2023-02-06T13:05:18.295Z,4.35
2023-02-06T13:07:49.796Z,3.65
2023-02-06T13:10:19.229Z,5.63
2023-02-06T13:12:53.708Z,3.28
2023-02-06T13:15:23.884Z,3.10
2023-02-06T13:17:51.708Z,3.28
2023-02-06T13:20:19.805Z,2.95
2023-02-06T13:22:49.308Z,3.10
2023-02-06T13:25:54.023Z,2.78
2023-02-06T13:28:57.590Z,3.70
2023-02-06T13:31:31.290Z,2.85
2023-02-06T13:34:01.317Z,2.85
2023-02-06T13:36:43.530Z,2.65
2023-02-06T13:39:16.485Z,2.60
2023-02-06T13:41:45.518Z,2.55
2023-02-06T13:44:16.960Z,2.40
2023-02-06T13:47:02.359Z,2.70
2023-02-06T13:49:39.309Z,2.47
2023-02-06T13:52:09.954Z,2.05
2023-02-06T13:54:50.580Z,2.20
2023-02-06T13:57:29.544Z,2.10
2023-02-06T14:00:00.472Z,2.10
2023-02-06T14:02:32.362Z,1.80
2023-02-06T14:05:00.061Z,2.20
2023-02-06T14:07:45.115Z,2.10
2023-02-06T14:10:42.334Z,2.22
2023-02-06T14:13:16.781Z,2.22
2023-02-06T14:15:51.163Z,2.15
2023-02-06T14:18:30.228Z,2.05
2023-02-06T14:21:02.873Z,1.95
2023-02-06T14:23:39.844Z,1.92
2023-02-06T14:26:18.437Z,1.95
2023-02-06T14:28:52.596Z,1.80
2023-02-06T14:31:33.181Z,1.90
2023-02-06T14:34:07.962Z,1.90
2023-02-06T14:36:44.558Z,1.80
2023-02-06T14:39:41.289Z,1.95
2023-02-06T14:42:12.534Z,1.95
2023-02-06T14:44:40.250Z,2.10
2023-02-06T14:47:13.132Z,1.85
2023-02-06T14:49:42.198Z,1.80
2023-02-06T14:52:14.089Z,1.65
2023-02-06T14:54:41.746Z,1.92
2023-02-06T14:57:16.515Z,1.77
2023-02-06T14:59:51.955Z,1.77
2023-02-06T15:02:25.706Z,1.85
2023-02-06T15:04:55.014Z,1.60
2023-02-06T15:07:25.448Z,2.20
2023-02-06T15:10:02.573Z,1.80
2023-02-06T15:12:32.019Z,1.80
2023-02-06T15:15:02.561Z,1.70
2023-02-06T15:17:30.680Z,1.67
2023-02-06T15:20:23.453Z,1.77
2023-02-06T15:22:51.126Z,1.80
2023-02-06T15:25:27.333Z,1.60
2023-02-06T15:27:58.534Z,1.60
2023-02-06T15:30:26.928Z,1.75
2023-02-06T15:32:55.851Z,1.55
2023-02-06T15:35:25.765Z,1.50
2023-02-06T15:37:53.883Z,1.50
2023-02-06T15:40:25.448Z,1.33
2023-02-06T15:42:53.242Z,1.60
2023-02-06T15:45:22.601Z,1.65
2023-02-06T15:47:50.772Z,1.65
2023-02-06T15:50:19.227Z,1.73
2023-02-06T15:52:48.427Z,1.77
2023-02-06T15:55:27.002Z,1.60
2023-02-06T15:57:55.043Z,1.58
2023-02-06T16:00:24.481Z,1.88
2023-02-06T16:02:52.350Z,1.75
2023-02-06T16:05:24.747Z,1.40
2023-02-06T16:07:54.439Z,1.60
2023-02-06T16:10:23.253Z,1.38
2023-02-06T16:12:50.957Z,1.60
2023-02-06T16:15:30.506Z,1.38
2023-02-06T16:17:58.599Z,1.67
2023-02-06T16:20:32.141Z,1.40
2023-02-06T16:26:07.294Z,1.63
2023-02-06T16:28:40.609Z,1.40
2023-02-06T16:31:12.003Z,1.58
2023-02-06T16:33:40.884Z,1.30
2023-02-06T16:36:10.190Z,1.33
2023-02-06T16:38:37.880Z,1.60
2023-02-06T16:44:01.144Z,1.60
2023-02-06T16:46:29.015Z,1.85
2023-02-06T16:48:56.824Z,1.50
2023-02-06T16:51:25.621Z,1.40
2023-02-06T16:53:53.486Z,1.30
2023-02-06T16:56:21.499Z,1.40
2023-02-06T16:58:49.251Z,1.30
2023-02-06T17:01:21.973Z,1.33
2023-02-06T17:03:50.085Z,1.67
2023-02-06T17:06:20.488Z,1.23
2023-02-06T17:08:48.299Z,1.23
2023-02-06T17:11:15.944Z,2.42
2023-02-06T17:13:43.690Z,1.70
2023-02-06T17:16:13.943Z,1.55
2023-02-06T17:18:43.008Z,1.38
2023-02-06T17:21:12.061Z,1.20
2023-02-06T17:23:39.760Z,1.90
2023-02-06T17:26:07.485Z,3.63
2023-02-06T17:28:35.126Z,1.30
2023-02-06T17:31:02.893Z,1.10
2023-02-06T17:33:30.642Z,1.42
2023-02-06T17:35:59.645Z,1.20
2023-02-06T17:38:27.315Z,1.50
2023-02-06T17:40:55.062Z,1.48
2023-02-06T17:43:22.739Z,1.30
2023-02-06T17:45:50.438Z,1.33
2023-02-06T17:48:18.164Z,1.30
2023-02-06T17:50:45.853Z,1.38
2023-02-06T17:53:14.923Z,1.25
2023-02-06T17:55:44.895Z,1.30
2023-02-06T17:58:12.578Z,1.42
2023-02-06T18:00:40.254Z,1.60
2023-02-06T18:03:08.161Z,1.20
2023-02-06T18:05:36.186Z,1.13
2023-02-06T18:08:04.018Z,1.40
2023-02-06T18:10:33.004Z,1.20
2023-02-06T18:13:00.680Z,1.50
2023-02-06T18:15:29.892Z,1.45
2023-02-06T18:17:59.510Z,1.58
2023-02-06T18:20:27.240Z,1.70
2023-02-06T18:22:54.938Z,1.40
2023-02-06T18:25:23.664Z,1.20
2023-02-06T18:27:52.697Z,1.23
2023-02-06T18:30:20.413Z,1.30
2023-02-06T18:32:48.188Z,1.35
2023-02-06T18:35:16.276Z,1.25
2023-02-06T18:37:44.142Z,1.40
2023-02-06T18:40:12.547Z,1.30
2023-02-06T18:42:51.167Z,1.40
2023-02-06T18:45:20.547Z,1.50
2023-02-06T18:47:48.395Z,1.27
2023-02-06T18:50:16.599Z,1.30
2023-02-06T18:52:44.275Z,1.60
2023-02-06T18:55:12.111Z,1.60
2023-02-06T18:57:40.782Z,1.45
2023-02-06T19:00:09.536Z,1.50
2023-02-06T19:02:38.514Z,1.40
2023-02-06T19:05:06.372Z,1.30
2023-02-06T19:07:34.125Z,1.73
2023-02-06T19:10:02.855Z,1.48
2023-02-06T19:12:30.555Z,1.40
2023-02-06T19:14:58.897Z,1.50
2023-02-06T19:17:27.021Z,1.25
2023-02-06T19:19:56.094Z,1.30
2023-02-06T19:22:23.886Z,1.55
2023-02-06T19:24:53.102Z,1.63
2023-02-06T19:27:20.908Z,1.40
2023-02-06T19:29:48.719Z,1.40
2023-02-06T19:32:16.455Z,1.48
2023-02-06T19:34:45.215Z,1.40
2023-02-06T19:37:14.264Z,1.38
2023-02-06T19:39:43.130Z,1.48
2023-02-06T19:42:11.090Z,1.75
2023-02-06T19:44:38.781Z,1.40
2023-02-06T19:47:06.454Z,1.63
2023-02-06T19:49:34.189Z,2.00
2023-02-06T19:52:01.935Z,1.63
2023-02-06T19:54:30.962Z,1.63
2023-02-06T19:57:00.398Z,1.60
2023-02-06T19:59:28.966Z,1.30
2023-02-06T20:01:57.396Z,1.50
2023-02-06T20:04:26.657Z,1.63
2023-02-06T20:06:55.737Z,1.88
2023-02-06T20:09:23.505Z,1.90
2023-02-06T20:11:52.525Z,1.33
2023-02-06T20:14:20.319Z,1.50
2023-02-06T20:16:48.835Z,1.70
2023-02-06T20:19:18.541Z,1.60
2023-02-06T20:21:47.122Z,2.00
2023-02-06T20:24:18.301Z,1.42
2023-02-06T20:26:46.035Z,1.65
2023-02-06T20:29:19.783Z,1.42
2023-02-06T20:31:47.539Z,1.60
2023-02-06T20:34:15.306Z,2.60
2023-02-06T20:36:43.173Z,1.50
2023-02-06T20:39:12.021Z,1.60
2023-02-06T20:41:39.907Z,1.42
2023-02-06T20:44:07.634Z,1.58
2023-02-06T20:46:36.928Z,1.63
2023-02-06T20:49:05.678Z,1.50
2023-02-06T20:51:33.458Z,1.30
2023-02-06T20:54:01.169Z,1.75
2023-02-06T20:56:29.298Z,2.47
2023-02-06T20:58:57.896Z,1.67
2023-02-06T21:01:27.071Z,1.70
2023-02-06T21:03:57.096Z,1.30
2023-02-06T21:06:24.930Z,1.60
2023-02-06T21:08:57.204Z,1.50
2023-02-06T21:11:29.199Z,1.30
2023-02-06T21:13:58.251Z,1.90
2023-02-06T21:16:26.325Z,1.63
2023-02-06T21:18:54.116Z,1.40
2023-02-06T21:21:23.110Z,1.58
2023-02-06T21:23:50.761Z,1.70
2023-02-06T21:26:18.580Z,1.60
2023-02-06T21:28:46.694Z,1.70
2023-02-06T21:31:15.675Z,1.67
2023-02-06T21:33:43.633Z,1.85
2023-02-06T21:36:11.366Z,1.98
2023-02-06T21:38:40.657Z,1.70
2023-02-06T21:41:09.558Z,1.80
2023-02-06T21:43:37.260Z,1.92
2023-02-06T21:46:05.158Z,1.23
2023-02-06T21:48:33.304Z,2.15
2023-02-06T21:51:08.237Z,1.58
2023-02-06T21:53:36.101Z,1.40
2023-02-06T21:56:07.091Z,1.85
2023-02-06T21:58:34.919Z,1.45
2023-02-06T22:01:02.627Z,1.70
2023-02-06T22:03:30.304Z,1.73
2023-02-06T22:06:07.311Z,1.83
2023-02-06T22:08:35.508Z,2.08
2023-02-06T22:11:03.226Z,1.73
2023-02-06T22:13:32.227Z,2.08
2023-02-06T22:15:59.942Z,1.70
2023-02-06T22:18:28.445Z,1.65
2023-02-06T22:21:04.072Z,1.70
2023-02-06T22:23:31.794Z,1.92
2023-02-06T22:25:59.458Z,1.38
2023-02-06T22:28:27.199Z,1.83
2023-02-06T22:30:56.275Z,1.70
2023-02-06T22:33:24.016Z,1.60
2023-02-06T22:35:51.683Z,1.85
2023-02-06T22:38:19.394Z,1.75
2023-02-06T22:40:47.038Z,1.52
2023-02-06T22:43:14.729Z,1.65
2023-02-06T22:45:42.376Z,1.50
2023-02-06T22:48:11.367Z,2.20
2023-02-06T22:50:39.038Z,1.58
2023-02-06T22:53:24.583Z,1.60
2023-02-06T22:56:09.619Z,1.73
2023-02-06T22:58:37.294Z,1.77
2023-02-06T23:01:05.234Z,1.80
2023-02-06T23:03:34.315Z,1.65
2023-02-06T23:06:02.472Z,1.70
2023-02-06T23:08:30.235Z,2.05
2023-02-06T23:10:57.986Z,1.52
2023-02-06T23:13:25.780Z,1.70
2023-02-06T23:15:55.413Z,1.60
2023-02-06T23:18:23.117Z,1.73
2023-02-06T23:20:55.763Z,1.70
2023-02-06T23:23:23.483Z,1.70
2023-02-06T23:25:52.479Z,1.70
2023-02-06T23:28:20.376Z,1.70
2023-02-06T23:30:48.086Z,1.60
2023-02-06T23:33:16.102Z,1.63
2023-02-06T23:35:44.013Z,1.60
2023-02-06T23:38:13.052Z,1.65
2023-02-06T23:40:40.806Z,1.98
2023-02-06T23:43:08.486Z,1.92
2023-02-06T23:45:36.444Z,1.50
2023-02-06T23:48:04.674Z,1.70
2023-02-06T23:50:32.346Z,1.70
2023-02-06T23:53:00.237Z,1.65
2023-02-06T23:55:30.434Z,1.58
2023-02-06T23:57:58.286Z,1.80
